Time;durP1;ratioP1;P1;durP2;ratioP2;P2;SDS_P1;SDS_P2;PMS_P1;PMS_P2;Temp;Humidity;BMP_temperature;BMP_pressure;BME280_temperature;BME280_humidity;BME280_pressure;Samples;Min_cycle;Max_cycle;Signal;HPM_P1;HPM_P2
2021/12/23 00:07:32;;;;;;;1.30;0.97;;;;;;;;;;21108087;28;20231;-78
2021/12/23 00:27:54;;;;;;;1.03;1.00;;;;;;;;;;21168220;28;20224;-78
2021/12/23 00:38:01;;;;;;;3.90;1.50;;;;;;;;;;21171550;27;20279;-78
2021/12/23 00:48:03;;;;;;;1.03;0.93;;;;;;;;;;21115151;28;20272;-78
2021/12/23 00:58:05;;;;;;;0.83;0.67;;;;;;;;;;21153589;28;20777;-80
2021/12/23 01:08:09;;;;;;;0.60;0.57;;;;;;;;;;21136639;28;20300;-80
2021/12/23 01:18:14;;;;;;;2.23;1.03;;;-3.90;99.90;;;;;;21111936;28;20219;-77
2021/12/23 01:28:16;;;;;;;0.60;0.60;;;;;;;;;;21145765;28;20228;-78
2021/12/23 01:38:18;;;;;;;1.37;1.27;;;;;;;;;;21144241;28;20620;-81
2021/12/23 01:48:20;;;;;;;0.20;0.20;;;;;;;;;;21168701;28;20235;-78
2021/12/23 01:58:22;;;;;;;1.50;1.40;;;;;;;;;;21162503;28;20839;-78
2021/12/23 02:08:24;;;;;;;1.30;0.93;;;;;;;;;;21125870;28;20219;-78
2021/12/23 02:18:26;;;;;;;1.23;1.13;;;-4.10;99.90;;;;;;21143918;28;20224;-79
2021/12/23 02:28:28;;;;;;;1.70;1.60;;;;;;;;;;21093717;28;20223;-79
2021/12/23 02:38:29;;;;;;;1.20;1.10;;;;;;;;;;21103693;27;20355;-79
2021/12/23 02:48:36;;;;;;;2.87;1.83;;;-3.30;99.90;;;;;;21138338;28;20765;-79
2021/12/23 02:58:38;;;;;;;1.70;1.10;;;;;;;;;;21125592;28;20253;-81
2021/12/23 03:08:47;;;;;;;1.73;1.30;;;;;;;;;;21166698;28;20293;-79
2021/12/23 03:18:49;;;;;;;2.00;1.80;;;-3.10;99.90;;;;;;21137835;28;20603;-79
2021/12/23 03:28:51;;;;;;;1.43;1.33;;;;;;;;;;21167403;28;20227;-79
2021/12/23 03:38:53;;;;;;;0.53;0.53;;;;;;;;;;21140097;28;20220;-78
2021/12/23 03:48:55;;;;;;;2.03;1.40;;;;;;;;;;21137990;28;20231;-79
2021/12/23 03:58:57;;;;;;;1.17;1.07;;;;;;;;;;21164796;28;20215;-78
2021/12/23 04:08:58;;;;;;;1.63;1.10;;;;;;;;;;21136289;28;20277;-79
2021/12/23 04:19:05;;;;;;;1.83;1.37;;;;;;;;;;21150078;28;20220;-79
2021/12/23 04:29:08;;;;;;;1.63;1.53;;;-2.30;99.90;;;;;;21149812;28;20231;-78
2021/12/23 04:39:09;;;;;;;1.33;1.13;;;;;;;;;;21162714;28;20268;-78
2021/12/23 04:49:12;;;;;;;1.40;1.30;;;;;;;;;;21159939;28;20224;-79
2021/12/23 04:59:13;;;;;;;1.73;1.63;;;;;;;;;;21130436;28;20200;-81
2021/12/23 05:09:15;;;;;;;1.57;1.43;;;;;;;;;;21129888;28;20257;-79
2021/12/23 05:19:17;;;;;;;1.37;1.20;;;;;;;;;;21126866;28;20758;-79
2021/12/23 05:29:18;;;;;;;3.10;1.90;;;;;;;;;;21125901;28;20289;-79
2021/12/23 05:39:20;;;;;;;1.77;1.53;;;;;;;;;;21126992;28;20244;-78
2021/12/23 05:49:22;;;;;;;4.60;1.30;;;;;;;;;;21125379;28;20223;-78
2021/12/23 05:59:24;;;;;;;2.00;1.53;;;;;;;;;;21131029;28;20264;-79
2021/12/23 06:09:26;;;;;;;1.23;1.13;;;;;;;;;;21141208;28;20236;-79
2021/12/23 06:19:28;;;;;;;1.97;1.50;;;;;;;;;;21123091;28;20296;-79
2021/12/23 06:29:30;;;;;;;0.90;0.90;;;;;;;;;;21139736;28;20277;-80
2021/12/23 06:39:36;;;;;;;1.70;1.57;;;-3.30;99.90;;;;;;21128497;28;20224;-79
2021/12/23 06:49:38;;;;;;;1.07;0.97;;;;;;;;;;21155893;28;20601;-79
2021/12/23 06:59:40;;;;;;;0.53;0.50;;;-3.40;99.90;;;;;;21155991;28;20684;-80
2021/12/23 07:09:43;;;;;;;2.13;1.60;;;;;;;;;;21135617;28;20227;-79
2021/12/23 07:19:45;;;;;;;1.17;1.00;;;;;;;;;;21136512;28;20277;-79
2021/12/23 07:29:47;;;;;;;1.07;0.97;;;;;;;;;;21116370;28;20300;-80
2021/12/23 07:39:49;;;;;;;1.40;1.30;;;;;;;;;;21111327;27;20221;-80
2021/12/23 07:49:51;;;;;;;1.70;1.60;;;;;;;;;;21051144;28;20237;-80
2021/12/23 07:59:53;;;;;;;0.73;0.70;;;;;;;;;;21064273;28;20215;-81
2021/12/23 08:09:55;;;;;;;0.40;0.40;;;;;;;;;;21148662;28;20793;-79
2021/12/23 08:19:56;;;;;;;1.50;1.40;;;;;;;;;;21166431;28;20284;-79
2021/12/23 08:29:58;;;;;;;1.13;1.03;;;;;;;;;;21131736;28;20292;-79
2021/12/23 08:40:00;;;;;;;1.17;1.00;;;;;;;;;;21129228;28;20220;-78
2021/12/23 08:50:03;;;;;;;0.90;0.73;;;;;;;;;;21218938;27;20273;-79
2021/12/23 09:00:06;;;;;;;0.80;0.80;;;;;;;;;;21213697;27;20680;-77
2021/12/23 09:10:09;;;;;;;1.70;1.60;;;;;;;;;;21225981;27;20295;-79
2021/12/23 09:20:14;;;;;;;1.30;1.20;;;-2.80;99.90;;;;;;21172660;27;20232;-78
2021/12/23 09:40:37;;;;;;;2.73;2.13;;;;;;;;;;21144005;28;20281;-79
2021/12/23 09:50:40;;;;;;;2.40;1.37;;;-2.70;99.90;;;;;;21142952;28;20253;-79
2021/12/23 10:00:45;;;;;;;0.70;0.70;;;-2.60;99.90;;;;;;21141803;28;20572;-79
2021/12/23 10:10:53;;;;;;;0.60;0.60;;;;;;;;;;21111232;28;20598;-77
2021/12/23 10:31:37;;;;;;;2.50;2.30;;;-2.30;99.90;;;;;;21131754;28;20764;-79
2021/12/23 10:41:39;;;;;;;0.77;0.77;;;;;;;;;;21123647;28;20316;-77
2021/12/23 10:51:59;;;;;;;2.37;2.07;;;;;;;;;;21110843;28;20588;-78
2021/12/23 11:02:10;;;;;;;2.23;2.03;;;;;;;;;;21128810;28;20680;-78
2021/12/23 11:27:25;;;;;;;2.87;2.40;;;;;;;;;;21153434;28;20227;-78
2021/12/23 11:43:31;;;;;;;1.40;1.20;;;;;;;;;;21133324;28;20220;-76
2021/12/23 11:53:35;;;;;;;1.27;1.17;;;-1.60;99.90;;;;;;21151021;28;20265;-78
2021/12/23 12:03:58;;;;;;;2.70;1.90;;;-1.00;99.90;;;;;;21148661;28;20277;-78
2021/12/23 12:14:00;;;;;;;3.57;2.63;;;;;;;;;;21164177;28;20216;-78
2021/12/23 12:24:14;;;;;;;3.93;2.43;;;-0.90;99.90;;;;;;21146967;28;20257;-77
2021/12/23 12:34:19;;;;;;;3.13;2.27;;;;;;;;;;21141971;28;20207;-77
2021/12/23 12:44:32;;;;;;;3.13;2.07;;;-0.70;99.90;;;;;;21137805;28;20288;-78
2021/12/23 12:54:40;;;;;;;4.10;2.77;;;;;;;;;;21112229;28;20269;-78
2021/12/23 13:04:44;;;;;;;3.20;2.20;;;;;;;;;;21140927;28;20265;-77
2021/12/23 13:15:26;;;;;;;3.73;2.63;;;-0.50;99.90;;;;;;21143632;28;20568;-78
2021/12/23 13:26:00;;;;;;;1.27;1.17;;;-0.30;99.90;;;;;;21126965;28;20327;-76
2021/12/23 13:36:02;;;;;;;2.57;2.37;;;;;;;;;;21120414;27;20703;-76
2021/12/23 13:46:08;;;;;;;1.10;1.00;;;-0.70;99.90;;;;;;21169809;27;20700;-77
2021/12/23 13:56:14;;;;;;;3.23;2.67;;;-0.30;99.90;;;;;;21217516;27;20219;-77
2021/12/23 14:06:17;;;;;;;3.43;2.60;;;;;;;;;;21134912;28;20224;-78
2021/12/23 14:16:19;;;;;;;1.43;1.30;;;;;;;;;;21068751;28;20240;-78
2021/12/23 14:26:31;;;;;;;2.10;1.50;;;;;;;;;;21051225;28;20254;-79
2021/12/23 14:36:35;;;;;;;0.97;0.90;;;0.20;99.90;;;;;;21123462;28;20580;-78
2021/12/23 14:46:41;;;;;;;1.73;1.17;;;0.60;99.90;;;;;;21153480;28;20600;-78
2021/12/23 14:56:47;;;;;;;1.40;1.13;;;;;;;;;;21109291;28;20268;-78
2021/12/23 15:07:04;;;;;;;1.70;1.27;;;1.10;99.90;;;;;;21122663;28;20239;-77
2021/12/23 15:17:13;;;;;;;1.43;1.30;;;;;;;;;;21171059;28;20749;-76
2021/12/23 15:27:23;;;;;;;1.83;1.27;;;;;;;;;;21170010;28;20208;-77
2021/12/23 15:37:26;;;;;;;1.27;0.87;;;;;;;;;;21169090;28;20211;-77
2021/12/23 15:47:29;;;;;;;1.50;1.40;;;;;;;;;;21164358;28;20224;-76
2021/12/23 15:57:31;;;;;;;1.53;1.03;;;;;;;;;;21150138;28;20284;-76
2021/12/23 16:07:34;;;;;;;2.30;1.60;;;;;;;;;;21148120;28;20273;-75
2021/12/23 16:17:36;;;;;;;5.07;2.47;;;;;;;;;;21166100;28;20207;-77
2021/12/23 16:27:38;;;;;;;1.40;1.30;;;;;;;;;;21164646;28;20280;-77
2021/12/23 16:37:40;;;;;;;1.70;1.53;;;;;;;;;;21138937;28;20273;-77
2021/12/23 16:47:42;;;;;;;2.27;1.60;;;;;;;;;;21127279;27;20329;-76
2021/12/23 16:57:44;;;;;;;3.00;2.03;;;;;;;;;;21134469;27;20211;-77
2021/12/23 17:07:47;;;;;;;1.63;1.53;;;1.10;99.90;;;;;;21197473;27;20253;-77
2021/12/23 17:17:50;;;;;;;2.67;1.37;;;;;;;;;;21113263;27;20245;-77
2021/12/23 17:27:52;;;;;;;2.20;1.87;;;;;;;;;;21106446;27;20687;-76
2021/12/23 17:37:57;;;;;;;2.23;1.47;;;;;;;;;;21086530;28;20662;-77
2021/12/23 17:47:59;;;;;;;4.43;2.00;;;;;;;;;;21096683;28;20683;-78
2021/12/23 17:58:01;;;;;;;2.40;1.67;;;;;;;;;;21098430;27;20260;-81
2021/12/23 18:08:04;;;;;;;1.00;0.97;;;0.90;99.90;;;;;;21097531;28;20220;-77
2021/12/23 18:18:07;;;;;;;3.80;1.03;;;1.60;99.90;;;;;;21111182;28;20265;-76
2021/12/23 18:28:11;;;;;;;0.60;0.60;;;2.50;99.90;;;;;;21096708;28;20216;-77
2021/12/23 18:38:21;;;;;;;0.37;0.37;;;2.70;99.90;;;;;;21088212;28;20246;-76
2021/12/23 18:48:23;;;;;;;0.70;0.70;;;;;;;;;;21113474;28;20260;-79
2021/12/23 18:58:26;;;;;;;1.00;0.93;;;;;;;;;;21103352;28;20231;-76
2021/12/23 19:08:28;;;;;;;2.10;1.47;;;;;;;;;;21126617;28;20224;-77
2021/12/23 19:18:30;;;;;;;2.50;1.80;;;;;;;;;;21111530;28;20689;-78
2021/12/23 19:28:32;;;;;;;2.33;1.53;;;;;;;;;;21135600;27;20301;-77
2021/12/23 19:38:34;;;;;;;2.33;1.67;;;;;;;;;;21091258;27;20265;-78
2021/12/23 19:48:36;;;;;;;3.00;1.87;;;;;;;;;;21120400;28;20219;-77
2021/12/23 19:58:39;;;;;;;1.07;0.80;;;;;;;;;;21130936;28;20212;-77
2021/12/23 20:08:41;;;;;;;1.67;1.27;;;;;;;;;;21135652;28;20208;-77
2021/12/23 20:18:43;;;;;;;2.10;1.53;;;2.60;99.90;;;;;;21125287;28;20220;-78
2021/12/23 20:28:45;;;;;;;3.63;1.90;;;;;;;;;;21114860;27;20223;-77
2021/12/23 20:38:47;;;;;;;3.17;1.77;;;;;;;;;;21139605;27;20288;-83
2021/12/23 20:48:49;;;;;;;1.37;1.03;;;;;;;;;;21223908;27;20561;-77
2021/12/23 20:58:52;;;;;;;1.97;1.27;;;;;;;;;;21212368;27;20207;-76
2021/12/23 21:08:54;;;;;;;0.60;0.60;;;2.60;99.90;;;;;;21231699;27;20235;-78
2021/12/23 21:18:57;;;;;;;2.90;1.57;;;2.60;99.90;;;;;;21239831;27;20227;-78
2021/12/23 21:29:00;;;;;;;1.87;1.57;;;;;;;;;;21225760;27;20583;-77
2021/12/23 21:39:02;;;;;;;1.93;0.73;;;;;;;;;;21224600;27;20215;-78
2021/12/23 21:49:04;;;;;;;1.10;0.77;;;;;;;;;;21224900;27;20748;-76
2021/12/23 21:59:06;;;;;;;0.97;0.70;;;;;;;;;;21206554;27;20215;-77
2021/12/23 22:09:08;;;;;;;3.27;1.33;;;;;;;;;;21217392;27;20288;-78
2021/12/23 22:19:10;;;;;;;0.97;0.70;;;;;;;;;;21221925;27;20223;-78
2021/12/23 22:29:13;;;;;;;1.57;1.23;;;;;;;;;;21183190;28;20700;-78
2021/12/23 22:39:16;;;;;;;1.30;0.97;;;;;;;;;;21138034;28;20220;-78
2021/12/23 22:49:18;;;;;;;0.97;0.70;;;;;;;;;;21137893;28;20644;-77
2021/12/23 22:59:20;;;;;;;1.37;0.93;;;;;;;;;;21121584;28;20212;-77
2021/12/23 23:09:22;;;;;;;1.40;0.97;;;;;;;;;;21138186;28;20296;-77
2021/12/23 23:19:28;;;;;;;1.17;0.90;;;4.10;99.90;;;;;;21121759;28;20557;-77
2021/12/23 23:49:53;;;;;;;1.90;1.13;;;;;;;;;;21152309;28;20235;-77
2021/12/23 23:59:55;;;;;;;1.70;0.80;;;;;;;;;;21167792;28;20216;-77
